Time;durP1;ratioP1;P1;durP2;ratioP2;P2;SDS_P1;SDS_P2;PMS_P1;PMS_P2;Temp;Humidity;BMP_temperature;BMP_pressure;BME280_temperature;BME280_humidity;BME280_pressure;Samples;Min_cycle;Max_cycle;Signal;HPM_P1;HPM_P2
2022/11/20 00:01:45;;;;;;;33.58;14.35;;;;;;;3.53;60.60;99511.84;7765369;32;37838;-86
2022/11/20 00:06:06;;;;;;;31.00;14.85;;;;;;;3.70;60.40;99495.81;7765527;32;37990;-87
2022/11/20 00:10:22;;;;;;;31.40;13.52;;;;;;;3.65;60.40;99480.31;7754208;32;39943;-87
2022/11/20 00:14:38;;;;;;;29.67;14.57;;;;;;;3.46;60.83;99482.28;7792560;32;41225;-87
2022/11/20 00:18:55;;;;;;;26.90;13.85;;;;;;;3.47;60.88;99466.97;7778371;32;37936;-87
2022/11/20 00:23:11;;;;;;;25.48;13.80;;;;;;;3.76;60.83;99457.94;7792472;32;37211;-87
2022/11/20 00:27:27;;;;;;;29.30;13.45;;;;;;;3.42;61.52;99477.63;7792405;32;39386;-86
2022/11/20 00:31:44;;;;;;;28.85;14.57;;;;;;;3.71;60.95;99495.56;7780749;32;39848;-87
2022/11/20 00:36:09;;;;;;;32.97;15.43;;;;;;;3.87;60.30;99483.25;7764423;32;37943;-87
2022/11/20 00:40:25;;;;;;;28.42;13.55;;;;;;;3.84;60.50;99478.31;7765209;32;37377;-86
2022/11/20 00:44:41;;;;;;;35.50;15.60;;;;;;;3.83;60.86;99475.84;7764989;32;39300;-86
2022/11/20 00:48:58;;;;;;;31.87;14.32;;;;;;;3.78;61.31;99475.75;7764762;32;39859;-87
2022/11/20 00:53:14;;;;;;;41.28;16.87;;;;;;;3.97;60.72;99489.91;7764907;32;37943;-86
2022/11/20 00:57:31;;;;;;;37.17;16.67;;;;;;;3.78;61.41;99483.84;7764934;32;37011;-86
2022/11/20 01:01:47;;;;;;;29.35;15.68;;;;;;;4.04;60.53;99483.37;7765010;32;39416;-86
2022/11/20 01:06:06;;;;;;;37.90;18.25;;;;;;;3.69;62.04;99494.16;7764780;32;40033;-86
2022/11/20 01:10:23;;;;;;;41.60;18.37;;;;;;;3.81;61.88;99495.00;7764636;32;38628;-85
2022/11/20 01:14:39;;;;;;;38.33;16.58;;;;;;;4.04;61.33;99512.22;7764610;32;37136;-87
2022/11/20 01:18:58;;;;;;;38.85;17.65;;;;;;;4.04;60.90;99504.94;7764479;32;40079;-86
2022/11/20 01:23:14;;;;;;;31.80;15.85;;;;;;;3.96;61.22;99521.47;7764613;32;40073;-86
2022/11/20 01:27:30;;;;;;;33.08;16.55;;;;;;;4.13;60.75;99516.19;7764425;32;38579;-87
2022/11/20 01:31:47;;;;;;;32.55;15.80;;;;;;;3.64;61.98;99518.28;7764152;32;37219;-86
2022/11/20 01:36:07;;;;;;;35.30;16.52;;;;;;;4.02;60.87;99507.06;7764210;32;39358;-86
2022/11/20 01:40:23;;;;;;;33.38;16.02;;;;;;;3.73;61.25;99506.94;7764218;32;40828;-86
2022/11/20 01:44:57;;;;;;;37.38;16.37;;;;;;;4.01;60.69;99491.13;7764084;32;38692;-86
2022/11/20 01:49:27;;;;;;;31.30;14.75;;;;;;;4.00;60.45;99481.38;7764089;32;37113;-85
2022/11/20 01:53:43;;;;;;;39.25;16.45;;;;;;;4.20;59.90;99478.31;7750509;32;39263;-86
2022/11/20 01:58:01;;;;;;;33.30;15.13;;;;;;;3.84;60.25;99472.12;7763715;32;40774;-88
2022/11/20 02:02:17;;;;;;;34.42;15.98;;;;;;;4.46;58.61;99460.75;7749994;32;37805;-87
2022/11/20 02:06:42;;;;;;;32.30;15.13;;;;;;;4.21;59.30;99455.62;7763153;32;37408;-86
2022/11/20 02:10:58;;;;;;;31.10;15.05;;;;;;;4.12;59.26;99426.34;7763619;32;40561;-86
2022/11/20 02:15:14;;;;;;;31.98;15.60;;;;;;;4.18;58.70;99429.16;7763557;32;39713;-86
2022/11/20 02:19:32;;;;;;;33.67;16.15;;;;;;;3.94;58.86;99429.19;7749081;32;37756;-87
2022/11/20 02:24:07;;;;;;;30.08;15.93;;;;;;;3.77;59.54;99442.56;7757410;32;187143;-86
2022/11/20 02:28:24;;;;;;;28.38;14.10;;;;;;;3.48;60.99;99436.25;7749421;32;37341;-86
2022/11/20 02:32:40;;;;;;;30.35;14.85;;;;;;;3.75;60.93;99425.81;7762767;32;40862;-86
2022/11/20 02:36:58;;;;;;;33.90;14.90;;;;;;;3.79;60.73;99423.47;7762651;32;38681;-86
2022/11/20 02:41:14;;;;;;;28.75;14.13;;;;;;;4.39;59.04;99414.19;7749107;32;36983;-86
2022/11/20 02:45:31;;;;;;;38.08;15.80;;;;;;;4.23;59.51;99418.47;7748684;32;38938;-86
2022/11/20 02:49:47;;;;;;;31.75;14.95;;;;;;;3.94;60.19;99413.00;7762677;32;40796;-86
2022/11/20 02:54:03;;;;;;;36.28;16.02;;;;;;;3.83;60.42;99413.84;7762464;32;38678;-86
2022/11/20 02:58:19;;;;;;;34.90;17.00;;;;;;;3.82;60.42;99410.31;7763707;32;36508;-86
2022/11/20 03:02:36;;;;;;;32.25;16.10;;;;;;;3.62;61.18;99416.09;7752327;32;40134;-86
2022/11/20 03:06:52;;;;;;;36.95;16.10;;;;;;;4.22;59.55;99409.53;7766480;32;40838;-87
2022/11/20 03:11:09;;;;;;;28.62;14.25;;;;;;;4.07;58.57;99401.13;7766171;32;37731;-87
2022/11/20 03:15:25;;;;;;;36.58;15.70;;;;;;;4.09;58.63;99413.34;7765791;32;37207;-87
2022/11/20 03:19:41;;;;;;;32.53;15.15;;;;;;;3.84;60.02;99420.88;7766144;32;39381;-87
2022/11/20 03:23:57;;;;;;;33.13;15.90;;;;;;;4.10;59.05;99420.34;7765902;32;40855;-87
2022/11/20 03:28:13;;;;;;;33.47;15.35;;;;;;;3.99;59.18;99413.13;7765658;32;38640;-87
2022/11/20 03:32:30;;;;;;;34.80;15.75;;;;;;;3.90;58.87;99414.56;7765729;32;37898;-87
2022/11/20 03:36:46;;;;;;;33.53;14.95;;;;;;;4.22;58.33;99419.50;7765889;32;39299;-86
2022/11/20 03:41:10;;;;;;;29.40;15.20;;;;;;;4.34;57.60;99423.00;7751908;32;39952;-86
2022/11/20 03:45:26;;;;;;;32.58;14.55;;;;;;;3.56;59.31;99446.69;7765691;32;38481;-87
2022/11/20 03:49:43;;;;;;;31.10;15.18;;;;;;;3.96;58.40;99445.94;7765735;32;37845;-87
2022/11/20 03:54:02;;;;;;;30.77;15.25;;;;;;;4.32;57.61;99420.53;7765728;32;40102;-86
2022/11/20 03:58:18;;;;;;;30.85;15.45;;;;;;;4.04;58.37;99425.91;7765390;32;40906;-86
2022/11/20 04:02:34;;;;;;;29.12;15.02;;;;;;;3.93;59.00;99432.94;7765722;32;37993;-87
2022/11/20 04:06:50;;;;;;;30.15;14.68;;;;;;;3.93;59.82;99422.16;7765354;32;38007;-88
2022/11/20 04:11:23;;;;;;;30.05;15.38;;;;;;;4.05;58.89;99425.66;7764416;32;40011;-87
2022/11/20 04:15:39;;;;;;;30.27;14.10;;;;;;;4.00;59.54;99424.72;7765885;32;39908;-87
2022/11/20 04:19:55;;;;;;;30.52;15.57;;;;;;;3.85;59.71;99415.25;7765310;32;37874;-86
2022/11/20 04:24:12;;;;;;;31.35;14.55;;;;;;;4.25;58.72;99392.06;7765241;32;37866;-86
2022/11/20 04:28:28;;;;;;;27.92;14.40;;;;;;;4.38;58.18;99401.75;7764833;32;37843;-86
2022/11/20 04:32:44;;;;;;;32.95;15.00;;;;;;;4.23;58.15;99405.78;7764952;32;40762;-87
2022/11/20 04:37:01;;;;;;;28.10;14.45;;;;;;;4.01;58.92;99413.69;7765190;32;38001;-86
2022/11/20 04:41:19;;;;;;;31.83;15.27;;;;;;;4.37;58.19;99392.81;7765162;32;37270;-86
2022/11/20 04:45:35;;;;;;;31.90;15.80;;;;;;;4.39;58.23;99387.19;7751175;32;38288;-87
2022/11/20 04:49:52;;;;;;;28.73;15.07;;;;;;;3.82;59.72;99366.38;7764857;32;39895;-87
2022/11/20 04:54:10;;;;;;;32.30;16.23;;;;;;;4.02;59.12;99349.78;7764956;32;38021;-87
2022/11/20 04:58:26;;;;;;;31.42;15.90;;;;;;;3.18;61.47;99345.56;7751366;32;37178;-86
2022/11/20 05:02:42;;;;;;;33.67;15.90;;;;;;;3.51;60.67;99353.03;7764862;32;39868;-86
2022/11/20 05:06:58;;;;;;;35.53;15.75;;;;;;;3.50;60.70;99362.22;7764728;32;39998;-86
2022/11/20 05:11:17;;;;;;;39.55;17.10;;;;;;;4.01;59.21;99351.66;7764706;32;38453;-87
2022/11/20 05:15:33;;;;;;;31.73;15.90;;;;;;;4.04;59.12;99363.84;7750874;32;38021;-87
2022/11/20 05:19:49;;;;;;;31.37;15.32;;;;;;;3.87;59.22;99372.69;7764659;32;40103;-86
2022/11/20 05:24:08;;;;;;;27.87;14.77;;;;;;;3.89;59.09;99367.87;7764632;32;38148;-86
2022/11/20 05:28:25;;;;;;;28.38;14.35;;;;;;;4.04;58.42;99380.84;7750108;32;38590;-86
2022/11/20 05:32:41;;;;;;;28.25;14.48;;;;;;;4.05;58.72;99376.28;7750020;32;38035;-87
2022/11/20 05:36:58;;;;;;;28.48;14.65;;;;;;;4.05;59.35;99377.13;7764302;32;40012;-87
2022/11/20 05:41:16;;;;;;;25.92;14.07;;;;;;;3.85;59.86;99392.88;7764013;32;40731;-87
2022/11/20 05:45:32;;;;;;;28.40;13.80;;;;;;;3.96;59.48;99378.53;7764494;32;36849;-87
2022/11/20 05:49:49;;;;;;;27.90;13.95;;;;;;;3.99;59.72;99369.97;7764208;32;37032;-87
2022/11/20 05:54:05;;;;;;;29.65;14.23;;;;;;;3.65;60.51;99366.28;7764216;32;40020;-86
2022/11/20 05:58:21;;;;;;;31.10;14.52;;;;;;;3.71;59.98;99376.13;7763588;32;39945;-86
2022/11/20 06:02:37;;;;;;;27.80;13.85;;;;;;;3.96;59.32;99378.53;7763787;32;38512;-86
2022/11/20 06:06:53;;;;;;;32.08;14.82;;;;;;;4.21;58.70;99378.22;7763514;32;37272;-87
2022/11/20 06:11:12;;;;;;;28.70;14.45;;;;;;;4.16;58.51;99371.88;7763405;32;40076;-87
2022/11/20 06:15:28;;;;;;;33.10;15.18;;;;;;;3.90;59.83;99368.72;7763393;32;38970;-87
2022/11/20 06:19:44;;;;;;;30.15;14.15;;;;;;;3.90;59.31;99368.72;7763348;32;37918;-87
2022/11/20 06:24:00;;;;;;;26.87;12.70;;;;;;;3.92;58.67;99366.59;7763226;32;38012;-87
2022/11/20 06:28:16;;;;;;;27.05;14.60;;;;;;;3.97;58.38;99368.53;7762609;32;38985;-87
2022/11/20 06:32:33;;;;;;;26.67;14.52;;;;;;;4.08;58.33;99373.09;7763153;32;39677;-86
2022/11/20 06:36:49;;;;;;;33.95;14.77;;;;;;;4.29;58.30;99377.84;7766601;32;37866;-86
2022/11/20 06:41:07;;;;;;;25.70;12.90;;;;;;;4.30;58.60;99378.66;7766394;32;37236;-86
2022/11/20 06:45:26;;;;;;;26.25;14.18;;;;;;;4.09;58.96;99385.53;7766553;32;40101;-87
2022/11/20 06:49:42;;;;;;;29.42;13.88;;;;;;;4.39;57.40;99404.19;7766393;32;40384;-86
2022/11/20 06:54:00;;;;;;;32.58;18.20;;;;;;;4.69;56.80;99400.41;7766378;32;37641;-86
2022/11/20 06:58:17;;;;;;;33.70;15.80;;;;;;;4.47;57.94;99413.81;7766325;32;37964;-87
2022/11/20 07:02:33;;;;;;;28.38;14.15;;;;;;;4.61;58.27;99400.84;7766112;32;39364;-86
2022/11/20 07:06:49;;;;;;;32.45;15.07;;;;;;;4.79;57.24;99397.91;7752484;32;40753;-77
2022/11/20 07:11:07;;;;;;;32.17;15.57;;;;;;;4.97;61.61;99379.84;7766009;32;38019;-87
2022/11/20 07:15:24;;;;;;;26.40;13.35;;;;;;;4.89;58.46;99384.56;7766926;32;37059;-88
2022/11/20 07:19:42;;;;;;;29.45;14.60;;;;;;;4.64;58.42;99389.53;7752406;32;39946;-87
2022/11/20 07:23:58;;;;;;;26.70;13.30;;;;;;;4.48;59.49;99397.38;7752554;32;40714;-89
2022/11/20 07:28:15;;;;;;;35.67;14.55;;;;;;;4.57;59.13;99396.97;7765728;32;37686;-88
2022/11/20 07:32:31;;;;;;;27.83;14.20;;;;;;;4.85;58.70;99396.94;7765819;32;37869;-88
2022/11/20 07:36:47;;;;;;;24.05;13.95;;;;;;;5.11;57.41;99393.88;7765981;32;40089;-87
2022/11/20 07:41:03;;;;;;;29.15;14.20;;;;;;;4.77;57.14;99400.03;7765665;32;39941;-87
2022/11/20 07:45:21;;;;;;;30.17;14.10;;;;;;;4.51;57.60;99406.84;7765714;32;37885;-88
2022/11/20 07:49:37;;;;;;;26.23;12.93;;;;;;;4.70;58.16;99410.19;7765904;32;37300;-87
2022/11/20 07:53:53;;;;;;;23.62;13.02;;;;;;;4.68;57.36;99406.91;7765352;32;40135;-87
2022/11/20 07:58:09;;;;;;;26.08;12.80;;;;;;;5.15;56.61;99412.03;7765694;32;40051;-87
2022/11/20 08:02:25;;;;;;;23.05;11.90;;;;;;;5.44;54.53;99409.25;7765550;32;37918;-86
2022/11/20 08:06:42;;;;;;;27.17;12.60;;;;;;;5.29;54.58;99411.69;7764804;32;37991;-85
2022/11/20 08:15:34;;;;;;;27.62;14.13;;;;;;;5.54;54.62;99398.56;7765308;32;40754;-85
2022/11/20 08:19:50;;;;;;;24.10;12.95;;;;;;;5.82;53.35;99399.50;7751350;32;37873;-84
2022/11/20 08:24:07;;;;;;;27.42;12.60;;;;;;;5.47;54.46;99403.34;7764583;32;37979;-85
2022/11/20 08:28:24;;;;;;;22.73;12.45;;;;;;;5.79;53.89;99408.91;7762438;32;39224;-85
2022/11/20 08:32:40;;;;;;;22.37;11.25;;;;;;;5.63;52.68;99407.09;7762080;32;40905;-87
2022/11/20 08:36:56;;;;;;;21.83;10.70;;;;;;;5.92;52.29;99399.63;7763530;32;38718;-86
2022/11/20 08:41:25;;;;;;;24.70;12.02;;;;;;;6.17;50.64;99401.06;7764030;32;38347;-86
2022/11/20 08:45:41;;;;;;;22.80;11.45;;;;;;;6.01;51.37;99419.81;7764259;32;40201;-84
2022/11/20 08:49:57;;;;;;;24.02;12.57;;;;;;;5.78;53.49;99423.53;7763939;32;39989;-87
2022/11/20 08:54:13;;;;;;;22.33;11.20;;;;;;;5.42;54.24;99422.19;7764275;32;38965;-87
2022/11/20 08:58:29;;;;;;;23.58;11.90;;;;;;;5.84;51.34;99419.00;7749343;32;37987;-87
2022/11/20 09:02:46;;;;;;;26.62;12.77;;;;;;;5.79;52.35;99432.47;7764984;32;39290;-85
2022/11/20 09:07:02;;;;;;;24.30;13.20;;;;;;;5.68;52.74;99433.41;7750612;32;40754;-87
2022/11/20 09:11:18;;;;;;;26.65;14.07;;;;;;;5.64;54.96;99436.59;7764652;32;37917;-74
2022/11/20 09:15:34;;;;;;;28.60;14.30;;;;;;;5.78;56.46;99436.25;7765107;32;37950;-87
2022/11/20 09:19:50;;;;;;;28.30;13.25;;;;;;;5.85;55.03;99431.47;7764911;32;38969;-87
2022/11/20 09:24:07;;;;;;;24.02;13.10;;;;;;;5.81;56.10;99438.44;7764643;32;40642;-81
2022/11/20 09:28:23;;;;;;;31.98;15.00;;;;;;;5.89;55.11;99442.63;7764458;32;38137;-81
2022/11/20 09:32:40;;;;;;;30.92;15.38;;;;;;;5.89;54.91;99443.41;7764306;32;37986;-82
2022/11/20 09:36:56;;;;;;;31.62;14.93;;;;;;;6.06;55.58;99448.03;7764477;32;40100;-81
2022/11/20 09:41:55;;;;;;;31.55;14.95;;;;;;;5.75;56.71;99450.25;7764338;32;40176;-84
2022/11/20 09:46:40;;;;;;;33.33;16.15;;;;;;;6.11;56.00;99442.66;7764090;32;38022;-86
2022/11/20 09:51:17;;;;;;;31.80;16.60;;;;;;;6.39;55.47;99442.47;7752859;32;37089;-82
2022/11/20 09:55:35;;;;;;;33.65;16.12;;;;;;;5.86;56.68;99433.09;7763962;32;39294;-83
2022/11/20 09:59:58;;;;;;;34.30;15.93;;;;;;;6.24;55.57;99431.44;7747971;32;40066;-83
2022/11/20 10:04:20;;;;;;;29.50;15.32;;;;;;;6.73;55.03;99420.63;7729005;32;38393;-82
2022/11/20 10:09:06;;;;;;;26.37;14.73;;;;;;;6.95;54.23;99425.16;7764906;32;36626;-82
2022/11/20 10:13:44;;;;;;;26.37;13.43;;;;;;;7.51;53.12;99420.22;7752214;32;40072;-82
2022/11/20 10:18:37;;;;;;;25.80;13.60;;;;;;;7.43;52.64;99423.41;7764202;32;40180;-85
2022/11/20 10:23:22;;;;;;;23.15;13.23;;;;;;;7.70;51.37;99422.50;7749763;32;39164;-85
2022/11/20 10:27:53;;;;;;;24.42;12.93;;;;;;;6.97;50.47;99412.22;7742932;32;36782;-86
2022/11/20 10:32:18;;;;;;;27.23;13.95;;;;;;;6.61;52.38;99411.03;7726420;32;40133;-86
2022/11/20 10:36:42;;;;;;;28.92;13.90;;;;;;;6.71;53.00;99403.00;7751753;32;41235;-85
2022/11/20 10:45:58;;;;;;;33.72;15.68;;;;;;;7.45;52.30;99394.16;7766383;32;37202;-84
2022/11/20 10:50:19;;;;;;;29.48;13.95;;;;;;;6.83;54.56;99403.69;7766635;32;39208;-85
2022/11/20 10:54:43;;;;;;;32.03;15.47;;;;;;;6.45;55.72;99407.31;7753379;32;39979;-85
2022/11/20 10:59:31;;;;;;;33.38;16.02;;;;;;;6.31;56.93;99396.91;7766464;32;38179;-84
2022/11/20 11:03:48;;;;;;;35.22;18.52;;;;;;;6.74;56.18;99394.34;7754524;32;37349;-84
2022/11/20 11:08:10;;;;;;;35.13;17.48;;;;;;;7.18;54.68;99382.56;7765608;32;40113;-84
2022/11/20 11:12:28;;;;;;;26.55;14.65;;;;;;;7.78;53.50;99375.91;7753312;32;40837;-84
2022/11/20 11:16:56;;;;;;;30.27;14.77;;;;;;;7.41;53.38;99371.31;7752588;32;39019;-84
2022/11/20 11:21:12;;;;;;;30.42;15.70;;;;;;;7.86;52.07;99369.97;7765899;32;37207;-85
2022/11/20 11:25:29;;;;;;;28.87;14.70;;;;;;;8.38;50.96;99383.72;7766077;32;40106;-84
2022/11/20 11:29:46;;;;;;;31.37;15.00;;;;;;;8.16;50.45;99387.47;7766049;32;40086;-84
2022/11/20 11:34:13;;;;;;;28.77;15.35;;;;;;;8.34;50.19;99379.94;7765842;32;37568;-84
2022/11/20 11:38:42;;;;;;;28.23;14.75;;;;;;;8.57;50.03;99382.19;7752279;32;37306;-84
2022/11/20 11:43:02;;;;;;;28.92;14.65;;;;;;;8.65;49.72;99387.09;7766053;32;39857;-84
2022/11/20 11:47:23;;;;;;;32.08;15.90;;;;;;;8.20;51.37;99388.56;7765845;32;41460;-84
2022/11/20 11:51:57;;;;;;;31.48;14.87;;;;;;;8.05;51.11;99386.63;7765888;32;37958;-85
2022/11/20 11:56:14;;;;;;;28.38;14.63;;;;;;;8.03;52.30;99383.31;7765471;32;37244;-84
2022/11/20 12:00:32;;;;;;;29.83;14.25;;;;;;;8.55;49.99;99383.53;7765763;32;39115;-84
2022/11/20 12:04:57;;;;;;;29.50;14.13;;;;;;;8.27;51.83;99386.41;7752124;32;39658;-84
2022/11/20 12:09:13;;;;;;;30.35;14.87;;;;;;;9.28;49.65;99368.91;7751936;32;37829;-85
2022/11/20 12:13:36;;;;;;;29.45;14.48;;;;;;;9.52;48.37;99350.94;7765466;32;37211;-84
2022/11/20 12:17:52;;;;;;;27.50;13.90;;;;;;;9.85;47.74;99345.09;7765692;32;39464;-84
2022/11/20 12:22:09;;;;;;;26.87;13.88;;;;;;;10.05;47.86;99355.09;7765749;32;39794;-84
2022/11/20 12:26:44;;;;;;;24.98;13.55;;;;;;;10.29;46.05;99345.19;7765393;32;37848;-84
2022/11/20 12:31:15;;;;;;;28.60;13.50;;;;;;;11.11;45.92;99332.94;7764518;32;37852;-84
2022/11/20 12:36:09;;;;;;;27.85;13.75;;;;;;;10.68;45.51;99340.91;7765273;32;40095;-85
2022/11/20 12:40:46;;;;;;;26.92;14.25;;;;;;;11.05;44.54;99344.97;7764479;32;40874;-84
2022/11/20 12:45:15;;;;;;;27.70;13.38;;;;;;;10.72;44.07;99333.78;7765298;32;37632;-84
2022/11/20 12:49:51;;;;;;;28.40;13.60;;;;;;;10.41;45.71;99349.53;7765026;32;38171;-85
2022/11/20 12:54:34;;;;;;;28.83;13.60;;;;;;;9.80;46.43;99342.41;7752495;32;40109;-84
2022/11/20 12:59:09;;;;;;;30.83;15.27;;;;;;;9.67;47.81;99332.91;7765134;32;39612;-84
2022/11/20 13:03:51;;;;;;;28.40;14.70;;;;;;;9.17;48.52;99340.91;7765104;32;38475;-84
2022/11/20 13:08:25;;;;;;;24.12;13.98;;;;;;;8.99;49.63;99334.12;7752981;32;37234;-85
2022/11/20 13:13:05;;;;;;;28.23;14.13;;;;;;;9.13;48.83;99328.94;7765073;32;38382;-84
2022/11/20 13:17:31;;;;;;;35.97;15.15;;;;;;;8.87;49.60;99326.25;7764799;32;38470;-84
2022/11/20 13:21:49;;;;;;;27.80;13.88;;;;;;;8.83;49.70;99333.31;7764784;32;37983;-84
2022/11/20 13:26:34;;;;;;;36.13;16.95;;;;;;;8.49;50.66;99325.66;7764641;32;37117;-84
2022/11/20 13:30:52;;;;;;;34.13;16.77;;;;;;;8.56;50.72;99326.22;7751428;32;39164;-85
2022/11/20 13:35:09;;;;;;;31.62;16.37;;;;;;;8.47;50.98;99333.28;7764172;32;39747;-84
2022/11/20 13:39:26;;;;;;;31.45;16.30;;;;;;;8.17;51.62;99342.94;7749352;32;37942;-83
2022/11/20 13:43:44;;;;;;;34.08;15.50;;;;;;;8.05;51.73;99337.75;7763035;32;37483;-83
2022/11/20 13:48:04;;;;;;;32.30;16.20;;;;;;;9.44;48.96;99321.56;7764234;32;39479;-83
2022/11/20 13:52:29;;;;;;;31.83;15.55;;;;;;;9.35;48.62;99321.31;7764223;32;39622;-83
2022/11/20 13:57:00;;;;;;;33.60;16.67;;;;;;;10.79;46.24;99312.44;7764046;32;38722;-84
2022/11/20 14:01:21;;;;;;;32.35;16.33;;;;;;;12.00;42.80;99299.78;7762711;32;37890;-85
2022/11/20 14:05:40;;;;;;;35.17;17.20;;;;;;;13.93;38.03;99291.63;7762580;32;39548;-85
2022/11/20 14:09:57;;;;;;;44.75;17.20;;;;;;;14.13;37.39;99290.41;7748457;32;39734;-85
2022/11/20 14:14:18;;;;;;;31.33;16.65;;;;;;;13.54;38.27;99293.78;7763129;32;38038;-85
2022/11/20 14:18:35;;;;;;;31.92;16.27;;;;;;;12.60;39.71;99298.38;7763470;32;37243;-84
2022/11/20 14:22:52;;;;;;;32.97;16.83;;;;;;;12.24;40.92;99293.44;7763296;32;39944;-85
2022/11/20 14:27:20;;;;;;;31.25;16.87;;;;;;;12.53;40.62;99300.69;7736430;32;39619;-85
2022/11/20 14:31:36;;;;;;;30.92;17.40;;;;;;;12.49;40.69;99310.59;7736461;32;37628;-85
2022/11/20 14:35:57;;;;;;;32.90;17.02;;;;;;;11.79;42.18;99321.00;7736010;32;37210;-85
2022/11/20 14:40:35;;;;;;;32.97;17.45;;;;;;;11.70;42.31;99321.97;7735793;32;39501;-84
2022/11/20 14:44:56;;;;;;;37.13;17.85;;;;;;;11.27;43.60;99312.56;7735943;32;39979;-85
2022/11/20 14:49:13;;;;;;;32.65;17.12;;;;;;;9.78;46.78;99329.09;7722582;32;37611;-85
2022/11/20 14:53:29;;;;;;;35.03;17.12;;;;;;;9.06;49.22;99331.94;7736116;32;37910;-86
2022/11/20 14:57:54;;;;;;;38.78;17.55;;;;;;;8.98;49.49;99332.47;7752541;32;40084;-86
2022/11/20 15:02:11;;;;;;;34.03;17.52;;;;;;;8.06;52.48;99347.50;7753572;32;40088;-86
2022/11/20 15:06:29;;;;;;;32.17;16.42;;;;;;;8.27;51.52;99340.25;7766319;32;37899;-86
2022/11/20 15:10:48;;;;;;;36.20;18.20;;;;;;;7.94;52.60;99346.13;7766376;32;37278;-86
2022/11/20 15:15:06;;;;;;;32.83;16.80;;;;;;;7.67;53.51;99342.44;7766515;32;39229;-85
2022/11/20 15:19:24;;;;;;;36.45;17.85;;;;;;;8.02;52.45;99353.72;7752806;32;39732;-85
2022/11/20 15:23:41;;;;;;;39.22;18.70;;;;;;;7.66;53.52;99354.41;7752421;32;37846;-85
2022/11/20 15:27:57;;;;;;;41.58;20.52;;;;;;;7.32;54.41;99353.91;7765778;32;37890;-85
2022/11/20 15:32:13;;;;;;;43.28;19.27;;;;;;;7.48;54.25;99350.22;7765875;32;39076;-85
2022/11/20 15:36:30;;;;;;;39.85;18.73;;;;;;;7.54;54.09;99351.06;7765862;32;39739;-85
2022/11/20 15:40:46;;;;;;;36.90;19.35;;;;;;;6.84;56.18;99355.72;7765378;32;37878;-85
2022/11/20 15:45:06;;;;;;;45.12;21.92;;;;;;;6.83;56.58;99370.31;7765936;32;37274;-84
2022/11/20 15:49:23;;;;;;;45.83;22.48;;;;;;;6.26;57.85;99372.47;7765948;32;39016;-84
2022/11/20 15:53:40;;;;;;;41.78;20.60;;;;;;;6.66;57.41;99363.16;7765654;32;39257;-84
2022/11/20 15:57:56;;;;;;;68.37;31.98;;;;;;;6.57;57.80;99373.63;7765763;32;37544;-86
2022/11/20 16:02:13;;;;;;;59.85;25.12;;;;;;;6.57;57.72;99375.50;7765885;32;36950;-86
2022/11/20 16:06:34;;;;;;;56.85;24.87;;;;;;;6.88;56.92;99356.81;7765809;32;39085;-86
2022/11/20 16:10:50;;;;;;;44.38;20.45;;;;;;;6.67;58.09;99356.62;7764202;32;40918;-85
2022/11/20 16:19:42;;;;;;;45.28;20.05;;;;;;;7.00;57.05;99335.78;7757786;32;38406;-84
2022/11/20 16:24:04;;;;;;;46.28;21.50;;;;;;;6.70;58.06;99348.00;7746604;32;39215;-83
2022/11/20 16:28:21;;;;;;;38.78;19.73;;;;;;;6.43;58.91;99329.03;7751702;32;39596;-83
2022/11/20 16:32:38;;;;;;;45.67;21.37;;;;;;;6.51;58.50;99338.63;7751254;32;38646;-83
2022/11/20 16:36:54;;;;;;;50.50;22.15;;;;;;;6.16;59.41;99345.31;7765253;32;37708;-84
2022/11/20 16:41:13;;;;;;;43.72;21.08;;;;;;;6.49;57.67;99344.28;7765245;32;39000;-84
2022/11/20 16:45:29;;;;;;;45.42;22.77;;;;;;;6.35;58.53;99338.47;7764906;32;39893;-83
2022/11/20 16:49:48;;;;;;;51.75;23.85;;;;;;;6.44;58.25;99343.44;7764849;32;38600;-83
2022/11/20 16:54:06;;;;;;;51.35;25.33;;;;;;;5.85;59.55;99344.91;7774336;32;36880;-83
2022/11/20 16:58:22;;;;;;;49.90;23.58;;;;;;;5.93;59.22;99341.75;7764820;32;40092;-84
2022/11/20 17:02:38;;;;;;;48.72;24.77;;;;;;;5.72;61.06;99342.56;7764386;32;40172;-83
2022/11/20 17:06:54;;;;;;;45.92;23.80;;;;;;;5.92;59.69;99334.69;7764710;32;38383;-82
2022/11/20 17:11:17;;;;;;;47.78;23.75;;;;;;;6.10;58.46;99324.66;7768277;32;36926;-83
2022/11/20 17:15:33;;;;;;;50.33;24.37;;;;;;;6.27;57.51;99325.38;7765649;32;39533;-84
2022/11/20 17:19:50;;;;;;;50.20;24.15;;;;;;;6.21;57.52;99321.00;7763981;32;39965;-83
2022/11/20 17:24:10;;;;;;;48.20;24.52;;;;;;;5.95;58.17;99327.94;7763322;32;39088;-83
2022/11/20 17:28:26;;;;;;;50.17;24.80;;;;;;;6.12;57.51;99323.34;7737341;32;35782;-83
2022/11/20 17:32:45;;;;;;;53.47;25.10;;;;;;;5.73;58.12;99309.03;7736855;32;39614;-83
2022/11/20 17:37:02;;;;;;;49.17;22.95;;;;;;;5.65;58.38;99310.28;7737200;32;40114;-83
2022/11/20 17:41:24;;;;;;;49.33;24.90;;;;;;;5.70;58.16;99296.03;7737193;32;38688;-83
2022/11/20 17:45:40;;;;;;;59.22;28.85;;;;;;;5.67;59.32;99297.31;7737195;32;37235;-82
2022/11/20 17:49:56;;;;;;;55.25;27.30;;;;;;;5.33;61.55;99302.00;7742319;32;39379;-83
2022/11/20 17:54:12;;;;;;;56.00;27.65;;;;;;;5.67;59.05;99288.41;7763041;32;40664;-84
2022/11/20 17:58:28;;;;;;;54.67;25.80;;;;;;;5.55;58.70;99292.03;7763257;32;38655;-83
2022/11/20 18:02:45;;;;;;;53.05;25.30;;;;;;;5.31;60.84;99291.44;7762771;32;36868;-83
2022/11/20 18:07:01;;;;;;;47.42;24.48;;;;;;;5.49;60.14;99276.81;7763850;32;39303;-82
2022/11/20 18:11:20;;;;;;;42.58;22.87;;;;;;;5.53;59.78;99272.53;7763567;32;41017;-83
2022/11/20 18:15:36;;;;;;;49.10;22.65;;;;;;;5.56;58.99;99261.22;7763748;32;36824;-83
2022/11/20 18:19:52;;;;;;;47.47;23.48;;;;;;;5.34;59.51;99272.03;7763651;32;37910;-84
2022/11/20 18:24:29;;;;;;;47.08;22.37;;;;;;;5.02;61.23;99282.69;7768428;32;40520;-84
2022/11/20 18:28:45;;;;;;;43.92;22.98;;;;;;;4.96;62.02;99291.75;7791045;32;40576;-84
2022/11/20 18:33:01;;;;;;;43.63;22.00;;;;;;;4.71;61.81;99301.09;7780232;32;36086;-84
2022/11/20 18:37:18;;;;;;;40.42;21.60;;;;;;;4.74;61.15;99308.69;7793777;32;38052;-85
2022/11/20 18:46:09;;;;;;;42.70;21.67;;;;;;;4.35;62.20;99321.25;7793703;32;40037;-84
2022/11/20 18:50:25;;;;;;;45.83;21.60;;;;;;;4.61;60.61;99317.13;7793527;32;38009;-85
2022/11/20 18:54:41;;;;;;;39.55;19.90;;;;;;;4.44;61.13;99322.50;7779642;32;37372;-84
2022/11/20 18:59:01;;;;;;;43.13;20.98;;;;;;;4.86;59.63;99316.72;7779498;32;39287;-84
2022/11/20 19:03:17;;;;;;;38.15;20.62;;;;;;;4.88;59.28;99325.41;7766961;32;40014;-86
2022/11/20 19:07:34;;;;;;;43.75;21.45;;;;;;;4.95;59.84;99325.22;7764467;32;38687;-87
2022/11/20 19:11:51;;;;;;;46.25;21.58;;;;;;;4.51;60.69;99332.06;7765599;32;36869;-85
2022/11/20 19:16:18;;;;;;;45.17;20.62;;;;;;;4.46;60.41;99361.69;7765866;32;40094;-86
2022/11/20 19:20:34;;;;;;;40.95;20.65;;;;;;;4.58;60.96;99364.31;7752531;32;39553;-85
2022/11/20 19:24:51;;;;;;;44.45;19.62;;;;;;;3.99;62.36;99355.66;7765597;32;37541;-84
2022/11/20 19:29:14;;;;;;;47.90;20.55;;;;;;;4.01;62.29;99343.56;7765897;32;37297;-85
2022/11/20 19:33:33;;;;;;;43.22;21.35;;;;;;;3.83;62.92;99343.72;7751888;32;38346;-86
2022/11/20 19:37:50;;;;;;;49.22;22.52;;;;;;;3.80;63.02;99347.72;7765070;32;40715;-85
2022/11/20 19:42:09;;;;;;;48.60;23.17;;;;;;;3.65;63.50;99350.91;7748887;32;36454;-86
2022/11/20 19:46:29;;;;;;;43.00;21.60;;;;;;;3.45;63.83;99348.62;7763054;32;37990;-86
2022/11/20 19:50:45;;;;;;;47.03;21.42;;;;;;;3.51;63.70;99360.31;7763625;32;39377;-87
2022/11/20 19:55:02;;;;;;;48.08;21.90;;;;;;;3.92;62.38;99363.88;7749179;32;40822;-86
2022/11/20 19:59:19;;;;;;;46.42;21.25;;;;;;;3.96;62.11;99373.12;7762189;32;38813;-86
2022/11/20 20:03:35;;;;;;;41.40;20.15;;;;;;;4.26;61.23;99378.31;7761829;32;37295;-87
2022/11/20 20:07:51;;;;;;;47.70;22.20;;;;;;;4.48;60.16;99375.78;7748834;32;39449;-86
2022/11/20 20:12:07;;;;;;;44.85;20.58;;;;;;;4.14;60.70;99369.47;7762440;32;40740;-84
2022/11/20 20:16:26;;;;;;;44.47;21.48;;;;;;;4.45;60.78;99360.06;7760971;32;37332;-85
2022/11/20 20:20:42;;;;;;;41.92;20.67;;;;;;;3.88;61.41;99350.06;7762748;32;36854;-85
2022/11/20 20:24:58;;;;;;;47.75;21.73;;;;;;;3.55;62.52;99353.37;7760984;32;39842;-85